Wednesbury, United Kingdom
Current Conditions -  °F | °C
As of 2:50 PM on Thursday 30 Oct 2014 (Local Time) from EGBB Reporting Station
Broken Clouds Broken Clouds  
Wind Chill: 63°   Ceiling: 2100
Heat Index: 63°   Visibility: 6mi
Dew Point: 57°   Wind: 8mph
Humidity: 82%   Direction: 180°S
Pressure: 30"   Gusts: NA
Location:  52.55°N, 2.02°W
Report Text: EGBB 301450Z 18007KT 150V210 9999 SCT017 BKN021 17/14 Q1016
Loading
Personal Weather Stations






























Interactive Weather Map
Tropical Storm Tracking
New forecast layout! Learn more

10-Day Weather Forecast

Advertisements
Track Severe Weather on mobile